Time;durP1;ratioP1;P1;durP2;ratioP2;P2;SDS_P1;SDS_P2;PMS_P1;PMS_P2;Temp;Humidity;BMP_temperature;BMP_pressure;BME280_temperature;BME280_humidity;BME280_pressure;Samples;Min_cycle;Max_cycle;Signal;HPM_P1;HPM_P2
2023/08/21 00:01:53;;;;;;;15.07;2.53;;;;;;;;;;5033638;28;20443;-38
2023/08/21 00:04:20;;;;;;;13.98;2.97;;;;;;;;;;5032721;28;20068;-38
2023/08/21 00:06:47;;;;;;;10.52;3.10;;;;;;;;;;5033093;28;20065;-37
2023/08/21 00:09:14;;;;;;;11.73;2.50;;;;;;;;;;5032572;28;20044;-38
2023/08/21 00:11:41;;;;;;;13.73;2.80;;;;;;;;;;5026661;28;20037;-37
2023/08/21 00:14:08;;;;;;;28.50;3.78;;;;;;;;;;5032173;28;20029;-37
2023/08/21 00:16:35;;;;;;;24.48;3.47;;;;;;;;;;5026871;28;20025;-37
2023/08/21 00:19:02;;;;;;;16.75;2.90;;;;;;;;;;5027672;28;20040;-38
2023/08/21 00:21:29;;;;;;;14.40;2.85;;;;;;;;;;5031091;28;20033;-38
2023/08/21 00:23:56;;;;;;;10.05;2.40;;;;;;;;;;5030906;28;20120;-38
2023/08/21 00:26:23;;;;;;;15.85;2.78;;;;;;;;;;5019649;28;20033;-38
2023/08/21 00:28:50;;;;;;;14.30;2.75;;;;;;;;;;5022435;28;20030;-38
2023/08/21 00:31:17;;;;;;;10.70;2.28;;;;;;;;;;5027270;28;20029;-38
2023/08/21 00:33:44;;;;;;;8.18;2.70;;;;;;;;;;5027861;28;20537;-38
2023/08/21 00:36:11;;;;;;;20.88;3.33;;;;;;;;;;5032865;28;20046;-38
2023/08/21 00:38:38;;;;;;;10.85;2.85;;;;;;;;;;5027657;28;20108;-38
2023/08/21 00:41:05;;;;;;;16.70;2.42;;;;;;;;;;5027504;28;20029;-38
2023/08/21 00:43:32;;;;;;;13.02;2.60;;;;;;;;;;5033035;28;20419;-38
2023/08/21 00:45:59;;;;;;;15.52;2.38;;;;;;;;;;5030718;28;20506;-38
2023/08/21 00:48:26;;;;;;;10.07;2.17;;;;;;;;;;5031462;28;20035;-38
2023/08/21 00:50:53;;;;;;;16.25;2.67;;;;;;;;;;5027420;28;20087;-39
2023/08/21 00:53:20;;;;;;;14.48;2.72;;;;;;;;;;5030126;28;20622;-38
2023/08/21 00:55:47;;;;;;;19.30;3.13;;;;;;;;;;5031333;28;20036;-38
2023/08/21 00:58:15;;;;;;;15.23;2.83;;;;;;;;;;5030694;28;20104;-38
2023/08/21 01:00:42;;;;;;;18.20;2.90;;;;;;;;;;5030912;28;20023;-37
2023/08/21 01:03:09;;;;;;;16.95;2.97;;;;;;;;;;5032018;28;20057;-38
2023/08/21 01:05:36;;;;;;;19.98;2.67;;;;;;;;;;5032141;28;20095;-38
2023/08/21 01:08:29;;;;;;;16.55;2.40;;;;;;;;;;5032372;28;20033;-38
2023/08/21 01:11:19;;;;;;;22.65;3.25;;;;;;;;;;5017768;28;20053;-38
2023/08/21 01:14:12;;;;;;;13.32;3.13;;;;;;;;;;5027108;28;20041;-38
2023/08/21 01:16:40;;;;;;;28.00;5.90;;;;;;;;;;5029434;28;20079;-38
2023/08/21 01:19:11;;;;;;;30.08;7.05;;;;;;;;;;5031622;28;20063;-38
2023/08/21 01:21:38;;;;;;;41.08;10.50;;;;;;;;;;5028885;28;20079;-38
2023/08/21 01:24:05;;;;;;;48.03;11.68;;;;;;;;;;5030764;28;20033;-38
2023/08/21 01:26:32;;;;;;;56.35;13.75;;;;;;;;;;5030420;28;20109;-38
2023/08/21 01:28:59;;;;;;;59.42;14.50;;;;;;;;;;5023084;28;20088;-38
2023/08/21 01:31:31;;;;;;;63.90;15.82;;;;;;;;;;5022739;28;20085;-38
2023/08/21 01:34:00;;;;;;;62.53;17.10;;;;;;;;;;5027093;28;20044;-38
2023/08/21 01:36:27;;;;;;;66.00;17.70;;;;;;;;;;5031449;28;20067;-38
2023/08/21 01:38:54;;;;;;;67.78;17.95;;;;;;;;;;5029921;28;20384;-38
2023/08/21 01:41:24;;;;;;;61.13;17.13;;;;;;;;;;5027823;28;20033;-38
2023/08/21 01:43:56;;;;;;;63.70;18.17;;;;;;;;;;5026288;28;20519;-38
2023/08/21 01:46:23;;;;;;;60.40;18.10;;;;;;;;;;5017913;28;20030;-38
2023/08/21 01:48:50;;;;;;;54.22;16.27;;;;;;;;;;5030668;28;20083;-39
2023/08/21 01:51:17;;;;;;;60.08;17.80;;;;;;;;;;5023166;28;20127;-40
2023/08/21 01:53:44;;;;;;;57.53;17.67;;;;;;;;;;5026694;28;20033;-38
2023/08/21 01:56:11;;;;;;;54.92;16.25;;;;;;;;;;5024122;28;20133;-38
2023/08/21 01:58:38;;;;;;;61.50;16.23;;;;;;;;;;5028057;28;20037;-42
2023/08/21 02:01:05;;;;;;;51.13;15.82;;;;;;;;;;5031604;28;20026;-38
2023/08/21 02:03:32;;;;;;;52.50;15.30;;;;;;;;;;5030797;28;20037;-38
2023/08/21 02:05:59;;;;;;;45.17;14.43;;;;;;;;;;5030833;28;20081;-38
2023/08/21 02:08:28;;;;;;;47.47;15.10;;;;;;;;;;5030351;28;20039;-37
2023/08/21 02:10:55;;;;;;;44.17;13.63;;;;;;;;;;5031364;28;20036;-38
2023/08/21 02:13:22;;;;;;;44.95;14.23;;;;;;;;;;5030935;28;20085;-38
2023/08/21 02:15:49;;;;;;;38.13;12.45;;;;;;;;;;5026695;28;20121;-38
2023/08/21 02:18:16;;;;;;;39.38;12.20;;;;;;;;;;5029333;28;20084;-38
2023/08/21 02:20:43;;;;;;;47.30;12.90;;;;;;;;;;5030330;28;20793;-38
2023/08/21 02:23:21;;;;;;;39.97;11.30;;;;;;;;;;5029031;28;20109;-38
2023/08/21 02:25:49;;;;;;;39.00;11.40;;;;;;;;;;5030569;28;20025;-38
2023/08/21 02:28:15;;;;;;;46.75;12.05;;;;;;;;;;5030401;28;20102;-38
2023/08/21 02:30:43;;;;;;;44.40;11.00;;;;;;;;;;5030834;28;20029;-38
2023/08/21 02:33:10;;;;;;;42.70;11.30;;;;;;;;;;5030776;28;20044;-39
2023/08/21 02:35:37;;;;;;;45.35;11.60;;;;;;;;;;5030528;28;20038;-39
2023/08/21 02:38:04;;;;;;;48.33;10.95;;;;;;;;;;5026892;28;20435;-38
2023/08/21 02:40:31;;;;;;;41.25;10.60;;;;;;;;;;5030944;28;20037;-38
2023/08/21 02:42:58;;;;;;;40.15;11.35;;;;;;;;;;5030627;28;20069;-38
2023/08/21 02:45:25;;;;;;;39.67;10.13;;;;;;;;;;5027456;28;20482;-38
2023/08/21 02:47:52;;;;;;;39.80;9.27;;;;;;;;;;5026328;28;20060;-41
2023/08/21 02:50:19;;;;;;;38.63;10.25;;;;;;;;;;5025293;28;20056;-42
2023/08/21 02:52:46;;;;;;;40.63;10.50;;;;;;;;;;5029103;28;20051;-39
2023/08/21 02:55:14;;;;;;;39.70;10.32;;;;;;;;;;5030433;28;20036;-38
2023/08/21 02:57:41;;;;;;;32.85;9.77;;;;;;;;;;5028471;28;20068;-39
2023/08/21 03:00:08;;;;;;;36.55;9.63;;;;;;;;;;5032520;28;20037;-39
2023/08/21 03:02:35;;;;;;;46.60;10.55;;;;;;;;;;5028357;28;20032;-39
2023/08/21 03:05:02;;;;;;;37.13;9.43;;;;;;;;;;5029167;28;20029;-39
2023/08/21 03:07:31;;;;;;;40.72;9.70;;;;;;;;;;5030059;28;20072;-41
2023/08/21 03:09:58;;;;;;;30.95;8.82;;;;;;;;;;5031914;28;20116;-40
2023/08/21 03:12:25;;;;;;;35.10;9.18;;;;;;;;;;5031541;28;20059;-39
2023/08/21 03:14:52;;;;;;;31.10;8.48;;;;;;;;;;5032987;28;20116;-39
2023/08/21 03:17:19;;;;;;;30.63;8.50;;;;;;;;;;5032709;28;20034;-39
2023/08/21 03:19:46;;;;;;;30.48;8.23;;;;;;;;;;5032986;28;20549;-40
2023/08/21 03:22:13;;;;;;;29.70;8.38;;;;;;;;;;5033830;28;20491;-38
2023/08/21 03:24:40;;;;;;;27.17;7.57;;;;;;;;;;5034207;28;20519;-39
2023/08/21 03:27:07;;;;;;;26.10;8.02;;;;;;;;;;5033506;28;20037;-39
2023/08/21 03:29:35;;;;;;;32.10;7.47;;;;;;;;;;5032645;28;20116;-39
2023/08/21 03:32:02;;;;;;;23.02;7.35;;;;;;;;;;5032159;28;20069;-39
2023/08/21 03:34:29;;;;;;;25.85;7.05;;;;;;;;;;5023571;28;20029;-41
2023/08/21 03:36:56;;;;;;;22.77;6.72;;;;;;;;;;5024053;28;20062;-41
2023/08/21 03:39:23;;;;;;;22.83;7.22;;;;;;;;;;5020835;28;20056;-40
2023/08/21 03:41:50;;;;;;;24.30;7.10;;;;;;;;;;5017377;28;20037;-39
2023/08/21 03:44:17;;;;;;;17.88;6.30;;;;;;;;;;5021857;28;20038;-40
2023/08/21 03:46:44;;;;;;;19.42;5.82;;;;;;;;;;5023032;28;20037;-40
2023/08/21 03:49:11;;;;;;;18.60;6.10;;;;;;;;;;5022403;28;20435;-40
2023/08/21 03:51:38;;;;;;;17.20;5.53;;;;;;;;;;5022354;28;20038;-39
2023/08/21 03:54:06;;;;;;;17.85;6.55;;;;;;;;;;5022990;28;20610;-40
2023/08/21 03:56:34;;;;;;;20.88;5.18;;;;;;;;;;5021302;28;20025;-40
2023/08/21 03:59:02;;;;;;;19.15;5.63;;;;;;;;;;5021649;28;20041;-39
2023/08/21 04:01:29;;;;;;;15.43;4.78;;;;;;;;;;5022700;28;20066;-39
2023/08/21 04:03:58;;;;;;;14.65;5.18;;;;;;;;;;5020318;28;20158;-40
2023/08/21 04:06:25;;;;;;;14.85;5.07;;;;;;;;;;5020213;28;20515;-41
2023/08/21 04:08:54;;;;;;;14.48;4.55;;;;;;;;;;5022295;28;20029;-41
2023/08/21 04:11:24;;;;;;;12.60;4.55;;;;;;;;;;5023993;28;20038;-42
2023/08/21 04:14:00;;;;;;;13.18;4.28;;;;;;;;;;5024210;28;20443;-42
2023/08/21 04:16:28;;;;;;;11.82;4.00;;;;;;;;;;5024189;28;20038;-38
2023/08/21 04:18:55;;;;;;;14.38;4.40;;;;;;;;;;5022462;28;20044;-41
2023/08/21 04:21:22;;;;;;;12.27;3.85;;;;;;;;;;5021633;28;20550;-39
2023/08/21 04:23:49;;;;;;;10.27;3.65;;;;;;;;;;5013931;28;20033;-39
2023/08/21 04:26:16;;;;;;;11.98;3.70;;;;;;;;;;5013562;28;20436;-38
2023/08/21 04:28:43;;;;;;;11.07;3.28;;;;;;;;;;5023305;28;20036;-39
2023/08/21 04:31:10;;;;;;;10.45;3.17;;;;;;;;;;5022829;28;20033;-38
2023/08/21 04:33:46;;;;;;;12.60;3.50;;;;;;;;;;5024284;28;20037;-40
2023/08/21 04:36:16;;;;;;;14.30;3.70;;;;;;;;;;5032670;28;20483;-39
2023/08/21 04:38:44;;;;;;;12.27;3.33;;;;;;;;;;5013905;28;20483;-38
2023/08/21 04:41:11;;;;;;;9.18;3.28;;;;;;;;;;5013616;28;20112;-39
2023/08/21 04:43:38;;;;;;;9.05;3.47;;;;;;;;;;5013725;28;20538;-38
2023/08/21 04:46:05;;;;;;;8.77;3.33;;;;;;;;;;5013647;28;20029;-38
2023/08/21 04:48:32;;;;;;;8.15;2.70;;;;;;;;;;5013765;28;20574;-38
2023/08/21 04:51:00;;;;;;;8.00;2.60;;;;;;;;;;5013545;28;20120;-38
2023/08/21 04:53:26;;;;;;;6.60;2.40;;;;;;;;;;5013406;28;20033;-38
2023/08/21 04:55:53;;;;;;;6.20;2.15;;;;;;;;;;5013544;28;20025;-38
2023/08/21 04:58:20;;;;;;;6.13;2.45;;;;;;;;;;5013473;28;20057;-38
2023/08/21 05:00:47;;;;;;;9.60;3.17;;;;;;;;;;5013444;28;20037;-39
2023/08/21 05:03:14;;;;;;;7.22;2.53;;;;;;;;;;5013277;28;20037;-38
2023/08/21 05:05:41;;;;;;;4.97;2.05;;;;;;;;;;5013131;28;20082;-38
2023/08/21 05:08:08;;;;;;;7.45;2.53;;;;;;;;;;5013318;28;20037;-39
2023/08/21 05:10:35;;;;;;;3.95;1.95;;;;;;;;;;5013216;28;20408;-38
2023/08/21 05:13:02;;;;;;;5.93;1.83;;;;;;;;;;5013130;28;20030;-38
2023/08/21 05:15:29;;;;;;;8.13;2.03;;;;;;;;;;5013160;28;20030;-38
2023/08/21 05:17:56;;;;;;;6.50;2.15;;;;;;;;;;5013132;28;20030;-38
2023/08/21 05:20:23;;;;;;;3.83;1.63;;;;;;;;;;5011874;28;20395;-39
2023/08/21 05:22:50;;;;;;;5.05;1.70;;;;;;;;;;5013277;28;20374;-39
2023/08/21 05:25:17;;;;;;;5.05;1.73;;;;;;;;;;5013002;28;20041;-38
2023/08/21 05:27:44;;;;;;;5.47;2.10;;;;;;;;;;5012927;28;20033;-39
2023/08/21 05:30:13;;;;;;;4.65;1.60;;;;;;;;;;5012889;28;20037;-39
2023/08/21 05:32:40;;;;;;;5.72;1.63;;;;;;;;;;5011928;28;20394;-38
2023/08/21 05:35:08;;;;;;;4.70;1.58;;;;;;;;;;5012881;28;20044;-38
2023/08/21 05:37:35;;;;;;;4.13;1.65;;;;;;;;;;5012886;28;20115;-39
2023/08/21 05:40:03;;;;;;;3.95;1.70;;;;;;;;;;5012782;28;20033;-39
2023/08/21 05:42:30;;;;;;;4.05;1.45;;;;;;;;;;5012636;28;20046;-38
2023/08/21 05:44:57;;;;;;;3.50;1.35;;;;;;;;;;5028889;28;20079;-39
2023/08/21 05:47:24;;;;;;;6.57;1.63;;;;;;;;;;5032404;28;20025;-38
2023/08/21 05:49:52;;;;;;;4.65;1.30;;;;;;;;;;5032268;28;20396;-38
2023/08/21 05:52:19;;;;;;;5.20;1.42;;;;;;;;;;5032167;28;20041;-38
2023/08/21 05:54:46;;;;;;;3.00;1.35;;;;;;;;;;5032332;28;20156;-38
2023/08/21 05:57:13;;;;;;;3.25;1.42;;;;;;;;;;5032242;28;20053;-38
2023/08/21 05:59:44;;;;;;;3.10;1.30;;;;;;;;;;5032091;28;20060;-39
2023/08/21 06:02:12;;;;;;;3.70;1.50;;;;;;;;;;5030720;28;20044;-39
2023/08/21 06:04:40;;;;;;;3.00;1.33;;;;;;;;;;5032043;28;20026;-38
2023/08/21 06:07:08;;;;;;;1.75;0.80;;;;;;;;;;5031849;28;20801;-39
2023/08/21 06:09:36;;;;;;;3.38;1.10;;;;;;;;;;5032284;28;20444;-39
2023/08/21 06:12:03;;;;;;;2.38;1.10;;;;;;;;;;5031619;28;20373;-38
2023/08/21 06:14:30;;;;;;;2.22;1.00;;;;;;;;;;5031907;28;20038;-39
2023/08/21 06:16:58;;;;;;;4.32;1.08;;;;;;;;;;5031893;28;20030;-38
2023/08/21 06:19:25;;;;;;;5.05;1.30;;;;;;;;;;5031854;28;20116;-38
2023/08/21 06:21:52;;;;;;;3.10;1.23;;;;;;;;;;5031701;28;20029;-38
2023/08/21 06:24:19;;;;;;;2.45;0.90;;;;;;;;;;5031740;28;20029;-38
2023/08/21 06:26:46;;;;;;;1.52;0.82;;;;;;;;;;5030542;28;20030;-38
2023/08/21 06:29:13;;;;;;;1.92;1.08;;;;;;;;;;5031747;28;20057;-38
2023/08/21 06:31:40;;;;;;;2.95;0.98;;;;;;;;;;5031572;28;20033;-38
2023/08/21 06:34:07;;;;;;;2.75;0.95;;;;;;;;;;5031687;28;20038;-38
2023/08/21 06:36:34;;;;;;;2.70;1.05;;;;;;;;;;5031615;28;20483;-39
2023/08/21 06:39:01;;;;;;;2.53;0.95;;;;;;;;;;5031573;28;20033;-39
2023/08/21 06:41:28;;;;;;;1.90;0.90;;;;;;;;;;5031516;28;20544;-38
2023/08/21 06:43:55;;;;;;;1.60;0.73;;;;;;;;;;5034477;28;20076;-38
2023/08/21 06:46:22;;;;;;;1.35;0.70;;;;;;;;;;5038209;28;20548;-39
2023/08/21 06:48:50;;;;;;;2.28;0.95;;;;;;;;;;5038194;28;20049;-38
2023/08/21 06:51:17;;;;;;;3.00;0.98;;;;;;;;;;5037812;28;20677;-39
2023/08/21 06:53:44;;;;;;;1.70;0.70;;;;;;;;;;5038140;28;20037;-39
2023/08/21 06:56:11;;;;;;;2.35;0.90;;;;;;;;;;5038038;28;20026;-38
2023/08/21 06:58:38;;;;;;;1.83;0.80;;;;;;;;;;5038088;28;20104;-36
2023/08/21 07:01:05;;;;;;;1.15;0.80;;;;;;;;;;5038008;28;20536;-37
2023/08/21 07:03:32;;;;;;;2.00;0.88;;;;;;;;;;5038003;28;20669;-36
2023/08/21 07:06:00;;;;;;;2.05;0.80;;;;;;;;;;5036438;28;20060;-36
2023/08/21 07:08:28;;;;;;;2.97;0.98;;;;;;;;;;5038012;28;20033;-36
2023/08/21 07:10:55;;;;;;;1.50;0.77;;;;;;;;;;5037789;28;20044;-37
2023/08/21 07:13:23;;;;;;;1.80;0.70;;;;;;;;;;5038002;28;20033;-37
2023/08/21 07:15:50;;;;;;;1.10;0.60;;;;;;;;;;5037956;28;20017;-38
2023/08/21 07:18:16;;;;;;;1.42;0.70;;;;;;;;;;5037898;28;20026;-38
2023/08/21 07:20:43;;;;;;;1.00;0.52;;;;;;;;;;5037883;28;20030;-37
2023/08/21 07:23:10;;;;;;;1.08;0.50;;;;;;;;;;5037786;28;20036;-37
2023/08/21 07:25:38;;;;;;;1.75;0.65;;;;;;;;;;5037811;28;20037;-37
2023/08/21 07:28:05;;;;;;;1.95;0.80;;;;;;;;;;5037798;28;20025;-38
2023/08/21 07:30:32;;;;;;;2.35;0.65;;;;;;;;;;5037808;28;20030;-38
2023/08/21 07:32:59;;;;;;;0.70;0.43;;;;;;;;;;5037619;28;20032;-37
2023/08/21 07:35:26;;;;;;;2.25;0.55;;;;;;;;;;5037751;28;20064;-38
2023/08/21 07:37:53;;;;;;;1.35;0.70;;;;;;;;;;5037775;28;20052;-37
2023/08/21 07:40:20;;;;;;;1.23;0.60;;;;;;;;;;5037765;28;20053;-37
2023/08/21 07:42:47;;;;;;;1.73;0.90;;;;;;;;;;5037592;28;20092;-37
2023/08/21 07:45:14;;;;;;;1.13;0.47;;;;;;;;;;5037561;28;20442;-38
2023/08/21 07:47:41;;;;;;;1.20;0.63;;;;;;;;;;5037611;28;20021;-37
2023/08/21 07:50:08;;;;;;;1.42;0.68;;;;;;;;;;5037601;28;20025;-38
2023/08/21 07:52:35;;;;;;;1.67;0.70;;;;;;;;;;5037436;28;20069;-38
2023/08/21 07:55:03;;;;;;;1.63;0.60;;;;;;;;;;5035515;28;20146;-38
2023/08/21 07:57:30;;;;;;;1.20;0.68;;;;;;;;;;5034389;28;20026;-38
2023/08/21 07:59:57;;;;;;;1.02;0.40;;;;;;;;;;5034414;28;20040;-37
2023/08/21 08:02:24;;;;;;;1.30;0.57;;;;;;;;;;5034284;28;20033;-37
2023/08/21 08:04:51;;;;;;;0.95;0.57;;;;;;;;;;5034049;28;20022;-37
2023/08/21 08:07:18;;;;;;;1.13;0.60;;;;;;;;;;5034301;28;20103;-37
2023/08/21 08:09:46;;;;;;;1.50;0.65;;;;;;;;;;5034231;28;20071;-37
2023/08/21 08:12:13;;;;;;;0.73;0.43;;;;;;;;;;5033948;28;20048;-38
2023/08/21 08:14:40;;;;;;;3.25;0.80;;;;;;;;;;5034155;28;20057;-37
2023/08/21 08:17:07;;;;;;;1.58;0.50;;;;;;;;;;5034090;28;20399;-37
2023/08/21 08:19:35;;;;;;;1.33;0.52;;;;;;;;;;5034129;28;20096;-37
2023/08/21 08:22:02;;;;;;;1.67;0.63;;;;;;;;;;5033893;28;20041;-37
2023/08/21 08:24:30;;;;;;;1.75;0.70;;;;;;;;;;5033958;28;20039;-37
2023/08/21 08:26:57;;;;;;;1.20;0.70;;;;;;;;;;5033861;28;20106;-38
2023/08/21 08:29:24;;;;;;;1.30;0.57;;;;;;;;;;5033881;28;20059;-37
2023/08/21 08:31:51;;;;;;;1.80;0.50;;;;;;;;;;5033624;28;20555;-38
2023/08/21 08:34:20;;;;;;;0.95;0.60;;;;;;;;;;5033772;28;20040;-38
2023/08/21 08:36:47;;;;;;;1.48;0.60;;;;;;;;;;5033667;28;20026;-39
2023/08/21 08:39:14;;;;;;;1.20;0.52;;;;;;;;;;5033618;28;20033;-38
2023/08/21 08:41:45;;;;;;;0.60;0.50;;;;;;;;;;5033318;28;20021;-38
2023/08/21 08:44:13;;;;;;;0.82;0.50;;;;;;;;;;5033581;28;20053;-37
2023/08/21 08:46:40;;;;;;;0.70;0.40;;;;;;;;;;5033457;28;20022;-38
2023/08/21 08:49:08;;;;;;;1.33;0.60;;;;;;;;;;5033547;28;20036;-38
2023/08/21 08:51:37;;;;;;;0.93;0.50;;;;;;;;;;5033294;28;20029;-37
2023/08/21 08:54:04;;;;;;;0.90;0.47;;;;;;;;;;5033320;28;20060;-37
2023/08/21 08:56:31;;;;;;;0.98;0.60;;;;;;;;;;5033360;28;20028;-38
2023/08/21 08:58:58;;;;;;;0.65;0.40;;;;;;;;;;5033337;28;20017;-37
2023/08/21 09:01:25;;;;;;;0.90;0.40;;;;;;;;;;5033019;28;20025;-38
2023/08/21 09:03:52;;;;;;;0.90;0.40;;;;;;;;;;5033250;28;20068;-37
2023/08/21 09:06:19;;;;;;;0.95;0.50;;;;;;;;;;5032121;28;20125;-38
2023/08/21 09:08:55;;;;;;;1.63;0.50;;;;;;;;;;5032872;28;20022;-37
2023/08/21 09:11:22;;;;;;;0.52;0.40;;;;;;;;;;5032993;28;20071;-38
2023/08/21 09:13:53;;;;;;;0.70;0.40;;;;;;;;;;5019962;28;20041;-38
2023/08/21 09:16:21;;;;;;;1.80;0.57;;;;;;;;;;5013464;28;20435;-38
2023/08/21 09:18:51;;;;;;;1.27;0.60;;;;;;;;;;5013224;28;20426;-37
2023/08/21 09:21:19;;;;;;;2.88;0.55;;;;;;;;;;5012872;28;20041;-37
2023/08/21 09:23:46;;;;;;;0.47;0.30;;;;;;;;;;5013065;28;20036;-37
2023/08/21 09:26:22;;;;;;;0.88;0.50;;;;;;;;;;5013087;28;20104;-37
2023/08/21 09:28:50;;;;;;;0.77;0.40;;;;;;;;;;5013008;28;20051;-37
2023/08/21 09:31:17;;;;;;;0.70;0.47;;;;;;;;;;5012851;28;20088;-37
2023/08/21 09:33:44;;;;;;;1.10;0.50;;;;;;;;;;5012900;28;20488;-37
2023/08/21 09:36:11;;;;;;;0.88;0.40;;;;;;;;;;5012826;28;20468;-37
2023/08/21 09:38:41;;;;;;;0.50;0.30;;;;;;;;;;5012828;28;20032;-37
2023/08/21 09:41:08;;;;;;;0.50;0.30;;;;;;;;;;5012672;28;20022;-37
2023/08/21 09:43:42;;;;;;;0.77;0.50;;;;;;;;;;5012720;28;20388;-38
2023/08/21 09:46:09;;;;;;;0.52;0.30;;;;;;;;;;5012734;28;20028;-37
2023/08/21 09:48:37;;;;;;;0.80;0.50;;;;;;;;;;5012652;28;20196;-37
2023/08/21 09:51:05;;;;;;;0.65;0.40;;;;;;;;;;5012492;28;20026;-37
2023/08/21 09:53:32;;;;;;;0.75;0.50;;;;;;;;;;5012446;28;20100;-37
2023/08/21 09:56:03;;;;;;;0.63;0.43;;;;;;;;;;5012540;28;20483;-39
2023/08/21 09:58:30;;;;;;;0.98;0.43;;;;;;;;;;5012559;28;20484;-38
2023/08/21 10:00:58;;;;;;;0.95;0.38;;;;;;;;;;5012290;28;20026;-37
2023/08/21 10:03:25;;;;;;;0.68;0.32;;;;;;;;;;5012389;28;20112;-39
2023/08/21 10:05:52;;;;;;;0.52;0.30;;;;;;;;;;5012190;28;20045;-38
2023/08/21 10:08:21;;;;;;;0.95;0.47;;;;;;;;;;5012347;28;20022;-37
2023/08/21 10:10:48;;;;;;;2.47;0.40;;;;;;;;;;5012133;28;20476;-38
2023/08/21 10:13:16;;;;;;;0.50;0.22;;;;;;;;;;5012218;28;20033;-37
2023/08/21 10:15:44;;;;;;;0.40;0.35;;;;;;;;;;5012260;28;20030;-37
2023/08/21 10:18:21;;;;;;;0.32;0.30;;;;;;;;;;5011808;28;20104;-38
2023/08/21 10:20:48;;;;;;;1.15;0.30;;;;;;;;;;5012040;28;20480;-37
2023/08/21 10:23:25;;;;;;;1.27;0.50;;;;;;;;;;5012133;28;20026;-37
2023/08/21 10:26:02;;;;;;;0.75;0.50;;;;;;;;;;5012077;28;20386;-37
2023/08/21 10:28:47;;;;;;;0.55;0.40;;;;;;;;;;5012108;28;20018;-37
2023/08/21 10:31:32;;;;;;;0.40;0.30;;;;;;;;;;5011852;28;20088;-37
2023/08/21 10:34:00;;;;;;;1.13;0.40;;;;;;;;;;5011957;28;20107;-37
2023/08/21 10:36:45;;;;;;;1.13;0.30;;;;;;;;;;5011856;28;20045;-37
2023/08/21 10:39:16;;;;;;;1.90;0.40;;;;;;;;;;5011612;28;20393;-38
2023/08/21 10:41:55;;;;;;;0.60;0.30;;;;;;;;;;5011458;28;20121;-37
2023/08/21 10:44:38;;;;;;;0.80;0.50;;;;;;;;;;5011670;28;20034;-39
2023/08/21 10:47:16;;;;;;;0.47;0.45;;;;;;;;;;5029984;28;20079;-38
2023/08/21 10:49:45;;;;;;;2.15;0.30;;;;;;;;;;5031520;28;20029;-37
2023/08/21 10:52:12;;;;;;;0.35;0.30;;;;;;;;;;5030625;28;20079;-37
2023/08/21 10:54:46;;;;;;;0.65;0.30;;;;;;;;;;5031398;28;20018;-37
2023/08/21 10:57:13;;;;;;;0.55;0.30;;;;;;;;;;5030120;28;20021;-38
2023/08/21 10:59:40;;;;;;;0.30;0.30;;;;;;;;;;5031401;28;20380;-37
2023/08/21 11:02:07;;;;;;;0.52;0.30;;;;;;;;;;5031423;28;20445;-37
2023/08/21 11:04:44;;;;;;;0.77;0.40;;;;;;;;;;5031427;28;20092;-37
2023/08/21 11:07:12;;;;;;;1.35;0.50;;;;;;;;;;5031144;28;20506;-37
2023/08/21 11:09:39;;;;;;;0.65;0.30;;;;;;;;;;5031301;28;20076;-37
2023/08/21 11:12:07;;;;;;;0.95;0.38;;;;;;;;;;5031210;28;20049;-37
2023/08/21 11:14:35;;;;;;;0.45;0.40;;;;;;;;;;5031253;28;20036;-37
2023/08/21 11:17:02;;;;;;;0.85;0.45;;;;;;;;;;5029939;28;20079;-38
2023/08/21 11:19:31;;;;;;;0.80;0.40;;;;;;;;;;5030643;28;20470;-38
2023/08/21 11:22:00;;;;;;;5.25;0.70;;;;;;;;;;5030762;28;20025;-37
2023/08/21 11:24:41;;;;;;;4.28;0.50;;;;;;;;;;5027549;28;20025;-37
2023/08/21 11:27:12;;;;;;;9.93;0.90;;;;;;;;;;5028745;28;20457;-37
2023/08/21 11:29:40;;;;;;;3.27;0.60;;;;;;;;;;5020018;28;20036;-37
2023/08/21 11:32:18;;;;;;;4.78;0.68;;;;;;;;;;5034103;28;20077;-37
2023/08/21 11:34:52;;;;;;;26.40;1.65;;;;;;;;;;5029911;28;20036;-36
2023/08/21 11:37:20;;;;;;;14.65;1.42;;;;;;;;;;5032402;28;20083;-37
2023/08/21 11:39:57;;;;;;;16.58;1.17;;;;;;;;;;5031153;28;20099;-37
2023/08/21 11:42:34;;;;;;;15.20;1.27;;;;;;;;;;5020825;28;20076;-39
2023/08/21 11:45:01;;;;;;;16.35;1.30;;;;;;;;;;5031272;28;20033;-37
2023/08/21 11:47:35;;;;;;;9.45;1.27;;;;;;;;;;5032295;28;20033;-37
2023/08/21 11:50:06;;;;;;;10.23;1.30;;;;;;;;;;5034454;28;20049;-37
2023/08/21 11:52:35;;;;;;;8.52;1.50;;;;;;;;;;5039590;28;20073;-37
2023/08/21 11:55:02;;;;;;;8.15;1.30;;;;;;;;;;5034513;28;20025;-37
2023/08/21 11:57:30;;;;;;;7.70;1.42;;;;;;;;;;5034531;28;20032;-37
2023/08/21 11:59:57;;;;;;;7.53;1.15;;;;;;;;;;5034411;28;20017;-37
2023/08/21 12:02:28;;;;;;;7.68;0.90;;;;;;;;;;5034329;28;20065;-37
2023/08/21 12:05:02;;;;;;;7.60;1.30;;;;;;;;;;5034194;28;20021;-37
2023/08/21 12:07:29;;;;;;;7.85;1.02;;;;;;;;;;5034247;28;20037;-37
2023/08/21 12:09:56;;;;;;;8.02;1.40;;;;;;;;;;5034322;28;20117;-37
2023/08/21 12:12:23;;;;;;;4.88;1.00;;;;;;;;;;5034184;28;20026;-37
2023/08/21 12:14:50;;;;;;;7.20;1.20;;;;;;;;;;5034263;28;20373;-37
2023/08/21 12:17:17;;;;;;;4.43;0.95;;;;;;;;;;5034140;28;20026;-37
2023/08/21 12:19:44;;;;;;;4.90;1.10;;;;;;;;;;5034138;28;20105;-37
2023/08/21 12:22:12;;;;;;;5.32;1.45;;;;;;;;;;5034006;28;20100;-37
2023/08/21 12:24:39;;;;;;;7.28;1.10;;;;;;;;;;5033977;28;20113;-37
2023/08/21 12:27:08;;;;;;;5.63;1.10;;;;;;;;;;5034071;28;20029;-37
2023/08/21 12:29:35;;;;;;;4.22;0.82;;;;;;;;;;5033953;28;20047;-37
2023/08/21 12:32:03;;;;;;;7.32;0.98;;;;;;;;;;5033740;28;20021;-37
2023/08/21 12:34:30;;;;;;;6.18;1.45;;;;;;;;;;5033790;28;20061;-37
2023/08/21 12:36:56;;;;;;;4.35;0.77;;;;;;;;;;5033823;28;20029;-37
2023/08/21 12:39:23;;;;;;;7.10;1.05;;;;;;;;;;5033733;28;20021;-36
2023/08/21 12:41:50;;;;;;;4.65;1.00;;;;;;;;;;5033249;28;20033;-37
2023/08/21 12:44:17;;;;;;;6.53;1.00;;;;;;;;;;5033683;28;20036;-37
2023/08/21 12:46:44;;;;;;;6.60;1.10;;;;;;;;;;5033670;28;20068;-37
2023/08/21 12:49:12;;;;;;;7.22;1.00;;;;;;;;;;5033541;28;20017;-37
2023/08/21 12:51:39;;;;;;;5.45;0.90;;;;;;;;;;5033273;28;20029;-36
2023/08/21 12:54:08;;;;;;;5.93;0.80;;;;;;;;;;5033365;28;20035;-37
2023/08/21 12:56:35;;;;;;;4.82;0.70;;;;;;;;;;5033434;28;20057;-37
2023/08/21 12:59:03;;;;;;;5.72;0.80;;;;;;;;;;5033523;28;20029;-37
2023/08/21 13:01:31;;;;;;;6.97;1.00;;;;;;;;;;5033240;28;20033;-36
2023/08/21 13:03:58;;;;;;;3.42;0.88;;;;;;;;;;5033350;28;20434;-37
2023/08/21 13:06:25;;;;;;;4.40;0.80;;;;;;;;;;5033168;28;20132;-37
2023/08/21 13:08:52;;;;;;;5.35;1.00;;;;;;;;;;5033266;28;20036;-37
2023/08/21 13:11:19;;;;;;;4.20;1.00;;;;;;;;;;5033042;28;20061;-36
2023/08/21 13:13:46;;;;;;;2.55;0.80;;;;;;;;;;5033210;28;20384;-37
2023/08/21 13:16:13;;;;;;;2.75;0.70;;;;;;;;;;5033102;28;20626;-37
2023/08/21 13:18:40;;;;;;;2.33;0.80;;;;;;;;;;5033032;28;20379;-37
2023/08/21 13:21:07;;;;;;;4.05;0.90;;;;;;;;;;5033011;28;20031;-37
2023/08/21 13:23:34;;;;;;;2.08;0.88;;;;;;;;;;5032948;28;20060;-37
2023/08/21 13:26:02;;;;;;;3.97;0.80;;;;;;;;;;5032852;28;20028;-36
2023/08/21 13:28:31;;;;;;;2.10;0.68;;;;;;;;;;5032857;28;20028;-37
2023/08/21 13:30:58;;;;;;;1.67;0.70;;;;;;;;;;5032608;28;20061;-38
2023/08/21 13:33:25;;;;;;;3.10;0.88;;;;;;;;;;5032797;28;20442;-37
2023/08/21 13:35:52;;;;;;;3.38;0.82;;;;;;;;;;5032699;28;20021;-37
2023/08/21 13:38:19;;;;;;;3.60;0.98;;;;;;;;;;5032667;28;20053;-38
2023/08/21 13:40:46;;;;;;;1.83;0.57;;;;;;;;;;5032378;28;20066;-36
2023/08/21 13:43:13;;;;;;;2.58;0.80;;;;;;;;;;5032587;28;20030;-37
2023/08/21 13:45:40;;;;;;;3.67;0.77;;;;;;;;;;5032547;28;20025;-37
2023/08/21 13:48:07;;;;;;;1.98;0.60;;;;;;;;;;5032761;28;20060;-37
2023/08/21 13:50:35;;;;;;;2.42;0.70;;;;;;;;;;5032325;28;20093;-37
2023/08/21 13:53:02;;;;;;;5.22;0.82;;;;;;;;;;5031563;28;20026;-36
2023/08/21 13:55:29;;;;;;;2.45;0.88;;;;;;;;;;5032353;28;20086;-37
2023/08/21 13:57:56;;;;;;;3.47;0.70;;;;;;;;;;5032295;28;20449;-36
2023/08/21 14:00:23;;;;;;;1.85;0.73;;;;;;;;;;5032158;28;20391;-37
2023/08/21 14:02:51;;;;;;;0.95;0.52;;;;;;;;;;5029936;28;20025;-37
2023/08/21 14:05:18;;;;;;;3.78;0.98;;;;;;;;;;5025471;28;20135;-37
2023/08/21 14:07:45;;;;;;;4.28;0.90;;;;;;;;;;5021505;28;20029;-37
2023/08/21 14:10:14;;;;;;;6.30;1.00;;;;;;;;;;5020777;28;20388;-37
2023/08/21 14:12:41;;;;;;;6.18;0.80;;;;;;;;;;5018231;28;20400;-37
2023/08/21 14:15:08;;;;;;;5.40;0.77;;;;;;;;;;5026057;28;20033;-37
2023/08/21 14:17:35;;;;;;;8.70;1.08;;;;;;;;;;5022979;28;20091;-37
2023/08/21 14:20:03;;;;;;;6.60;1.13;;;;;;;;;;5030766;28;20033;-37
2023/08/21 14:22:30;;;;;;;7.55;1.27;;;;;;;;;;5019949;28;20392;-37
2023/08/21 14:24:57;;;;;;;12.52;1.10;;;;;;;;;;5019077;28;20100;-37
2023/08/21 14:27:24;;;;;;;9.05;1.23;;;;;;;;;;5027659;28;20068;-38
2023/08/21 14:29:51;;;;;;;9.65;1.00;;;;;;;;;;5029883;28;20028;-36
2023/08/21 14:32:18;;;;;;;9.90;1.38;;;;;;;;;;5029728;28;20133;-37
2023/08/21 14:34:46;;;;;;;5.10;1.10;;;;;;;;;;5029920;28;20479;-37
2023/08/21 14:37:15;;;;;;;6.15;0.98;;;;;;;;;;5028980;28;20064;-37
2023/08/21 14:39:45;;;;;;;3.97;0.73;;;;;;;;;;5028151;28;20033;-37
2023/08/21 14:42:12;;;;;;;9.65;1.30;;;;;;;;;;5028799;28;20112;-36
2023/08/21 14:44:39;;;;;;;14.60;1.30;;;;;;;;;;5014665;28;20541;-37